tititudorancea.com
Station Historical Data
Daily Summary for December 8, 2018 Units:  Metric    English   Both
« Previous Day
Next Day »
Daily Weekly Monthly Yearly Custom
  High: Low: Average:
Temperature: -17.8 °C 13.9 °C 22.5 °C
Dew Point: -17.8 °C 10.7 °C 13.4 °C
Humidity: Humidity % 34 % 59 %
Wind Speed: 0 km/h 0 km/h 13.5 km/h
Wind Gust: 0 km/h - -
Wind:- - South
Pressure: 0 hPa 1009 hPa -
Precipitation: 0 mm    
Historical Graphs
 
 
Ararat weather Find more about Weather in Ararat, AU


 



 


Tabular Data for December 8, 2018
Time Temperature Dew Point Pressure Wind Wind Speed Wind Gust Humidity Rainfall Rate (Hourly)
-17.8 °C -17.8 °C 0 hPa Calm     Humidity % 0 mm
00:04 22.8 °C 11.8 °C 1010.7 hPa Calm     50 % 0 mm
00:09 22.7 °C 11.8 °C 1010.7 hPa SSW 5.6 km/h 2.7 km/h 50 % 0 mm
00:14 22.7 °C 11.8 °C 1010.7 hPa SSW 1.9 km/h 0.5 km/h 50 % 0 mm
00:19 22.7 °C 12 °C 1010.4 hPa SSW 3.7 km/h 3.4 km/h 51 % 0 mm
00:24 22.7 °C 11.7 °C 1010.4 hPa SSW 5.6 km/h 2.4 km/h 50 % 0 mm
00:29 22.8 °C 12.1 °C 1010 hPa SSW 3.7 km/h 1.1 km/h 51 % 0 mm
00:34 22.8 °C 11.8 °C 1010 hPa Calm     50 % 0 mm
00:39 22.7 °C 12.1 °C 1010 hPa Calm     51 % 0 mm
00:44 22.6 °C 11.9 °C 1010.4 hPa Calm     51 % 0 mm
00:49 22.6 °C 12.2 °C 1010.4 hPa SSW 5.6 km/h 1.6 km/h 52 % 0 mm
00:54 22.4 °C 12.1 °C 1010 hPa Calm     52 % 0 mm
00:59 22.3 °C 12.3 °C 1010.4 hPa SSW 5.6 km/h 2.1 km/h 53 % 0 mm
01:04 22.3 °C 11.9 °C 1010 hPa SSW 5.6 km/h 4 km/h 52 % 0 mm
01:09 22.4 °C 12.3 °C 1009.7 hPa SSW 1.9 km/h 0.8 km/h 53 % 0 mm
01:14 22.4 °C 12.1 °C 1009.7 hPa Calm     52 % 0 mm
01:19 22.4 °C 12.3 °C 1009.7 hPa SSW 1.6 km/h 0.2 km/h 53 % 0 mm
01:24 22.4 °C 12.1 °C 1009.7 hPa SSW 5.6 km/h 2.6 km/h 52 % 0 mm
01:29 22.6 °C 11.9 °C 1010 hPa SSW 9.3 km/h 8.5 km/h 51 % 0 mm
01:34 23 °C 11.7 °C 1010.4 hPa SSW 9.7 km/h 9.3 km/h 49 % 0 mm
01:39 23.3 °C 11.1 °C 1010 hPa SSW 9.7 km/h 6.1 km/h 46 % 0 mm
01:44 23.8 °C 10.8 °C 1009.7 hPa South 5.6 km/h 2.3 km/h 44 % 0 mm
01:49 24.1 °C 11.1 °C 1009.4 hPa South 3.7 km/h 2.6 km/h 44 % 0 mm
01:54 24.3 °C 11.2 °C 1009.4 hPa South 6.4 km/h 4.5 km/h 44 % 0 mm
01:59 24.2 °C 11.6 °C 1009.4 hPa Calm     45 % 0 mm
02:04 24.1 °C 11.4 °C 1009.4 hPa Calm     45 % 0 mm
02:09 23.9 °C 11.6 °C 1009.4 hPa Calm     46 % 0 mm
02:14 23.9 °C 11.6 °C 1009.4 hPa South 3.7 km/h 3.2 km/h 46 % 0 mm
02:19 23.8 °C 11.5 °C 1009.4 hPa South 1.9 km/h   46 % 0 mm
02:24 23.8 °C 11.4 °C 1009 hPa Calm     46 % 0 mm
02:29 23.7 °C 11.7 °C 1009.4 hPa Calm     47 % 0 mm
02:34 23.5 °C 11.6 °C 1009.4 hPa South 1.9 km/h 0.3 km/h 47 % 0 mm
02:39 23.4 °C 11.8 °C 1009.4 hPa South 3.7 km/h 3.5 km/h 48 % 0 mm
02:44 23.5 °C 11.6 °C 1009.4 hPa South 7.4 km/h 3.7 km/h 47 % 0 mm
02:49 23.6 °C 11.6 °C 1009.4 hPa South 5.6 km/h 0.2 km/h 47 % 0 mm
02:54 23.5 °C 11.8 °C 1009 hPa Calm     48 % 0 mm
02:59 23.3 °C 12.3 °C 1009 hPa South 7.4 km/h 3.2 km/h 50 % 0 mm
03:04 23.1 °C 12.1 °C 1009 hPa South 3.7 km/h 1.1 km/h 50 % 0 mm
03:09 23.1 °C 12.1 °C 1009.7 hPa South 3.7 km/h 1.8 km/h 50 % 0 mm
03:14 23 °C 12.6 °C 1009.7 hPa South 3.7 km/h 2.7 km/h 52 % 0 mm
03:19 23 °C 11.7 °C 1009.4 hPa South 13 km/h 10.6 km/h 49 % 0 mm
03:24 23.8 °C 11.2 °C 1009.7 hPa South 11.1 km/h 4.7 km/h 45 % 0 mm
03:29 24.4 °C 11.3 °C 1009.7 hPa South 11.1 km/h 8.9 km/h 44 % 0 mm
03:34 24.8 °C 11.1 °C 1009.7 hPa South 13 km/h 10.8 km/h 42 % 0 mm
03:39 25.2 °C 11.1 °C 1010 hPa South 5.6 km/h 3.7 km/h 41 % 0 mm
03:44 25.3 °C 11.1 °C 1010.4 hPa South 5.6 km/h 2.4 km/h 41 % 0 mm
03:49 25.2 °C 11.4 °C 1011.1 hPa SW 19.3 km/h 13.5 km/h 42 % 0 mm
03:54 25.5 °C 10.9 °C 1011.1 hPa West 17.7 km/h 14.6 km/h 40 % 0 mm
03:59 25.7 °C 10.7 °C 1011.1 hPa West 33.3 km/h 22.5 km/h 39 % 0 mm
04:04 25.4 °C 10.8 °C 1011.1 hPa WSW 29.6 km/h 16.4 km/h 40 % 0 mm
04:09 25.1 °C 11.2 °C 1011.1 hPa SW 24.1 km/h 6.3 km/h 42 % 0 mm
04:14 24.8 °C 11.3 °C 1011.1 hPa SW 14.8 km/h 6.9 km/h 43 % 0 mm
04:19 24.6 °C 11.6 °C 1011.1 hPa SW 14.5 km/h 8 km/h 44 % 0 mm
04:24 24.4 °C 12.3 °C 1011.4 hPa SW 18.5 km/h 9.3 km/h 47 % 0 mm
04:29 24.2 °C 12.8 °C 1011.7 hPa SW 20.4 km/h 11.6 km/h 49 % 0 mm
04:34 24.1 °C 13 °C 1011.7 hPa SW 18.5 km/h 10.5 km/h 50 % 0 mm
04:39 23.9 °C 12.8 °C 1011.7 hPa SW 11.1 km/h 7.4 km/h 50 % 0 mm
04:44 23.8 °C 12.7 °C 1011.7 hPa SW 11.1 km/h 7.7 km/h 50 % 0 mm
04:49 23.8 °C 12.4 °C 1011.7 hPa WSW 13 km/h 6.3 km/h 49 % 0 mm
04:54 23.9 °C 12.6 °C 1011.7 hPa SW 11.1 km/h 8.2 km/h 49 % 0 mm
04:59 24 °C 12.6 °C 1011.7 hPa SW 5.6 km/h 5.5 km/h 49 % 0 mm
05:04 23.9 °C 12.9 °C 1011.4 hPa SW 7.4 km/h 1.9 km/h 50 % 0 mm
05:09 23.8 °C 13.1 °C 1011.1 hPa SSW 7.4 km/h 3.9 km/h 51 % 0 mm
05:14 23.4 °C 13.6 °C 1011.1 hPa SSW 5.6 km/h 3.2 km/h 54 % 0 mm
05:19 22.9 °C 13.1 °C 1011.4 hPa South 11.1 km/h 7.1 km/h 54 % 0 mm
05:24 22.6 °C 12.8 °C 1011.4 hPa SE 9.7 km/h 9 km/h 54 % 0 mm
05:29 22.2 °C 12.7 °C 1011.7 hPa ESE 9.3 km/h 7.9 km/h 55 % 0 mm
05:34 22 °C 12.6 °C 1011.7 hPa ESE 9.3 km/h 6 km/h 55 % 0 mm
05:39 21.9 °C 12.4 °C 1011.4 hPa ESE 7.4 km/h 2.3 km/h 55 % 0 mm
05:44 21.8 °C 12.6 °C 1011.4 hPa ESE 7.4 km/h 2.4 km/h 56 % 0 mm
05:49 21.7 °C 12.5 °C 1011.7 hPa Calm     56 % 0 mm
05:54 21.6 °C 12.7 °C 1012.1 hPa ESE 3.2 km/h 1.3 km/h 57 % 0 mm
05:59 21.4 °C 12.8 °C 1012.1 hPa ESE 5.6 km/h 4 km/h 58 % 0 mm
06:04 21.3 °C 13 °C 1012.1 hPa ESE 3.7 km/h 1.1 km/h 59 % 0 mm
06:09 21.2 °C 13.7 °C 1011.7 hPa ESE 3.7 km/h 2.6 km/h 62 % 0 mm
06:14 21 °C 13.9 °C 1011.7 hPa Calm     64 % 0 mm
06:19 20.6 °C 14.3 °C 1012.1 hPa ESE 6.4 km/h 5.1 km/h 67 % 0 mm
06:24 20.1 °C 14.4 °C 1012.1 hPa ESE 6.4 km/h 4.7 km/h 70 % 0 mm
06:29 20 °C 14.6 °C 1012.1 hPa ESE 5.6 km/h 0.8 km/h 71 % 0 mm
06:34 19.9 °C 14.7 °C 1011.7 hPa Calm     72 % 0 mm
06:39 19.9 °C 14.9 °C 1011.7 hPa Calm     73 % 0 mm
06:44 19.9 °C 14.9 °C 1012.1 hPa ESE 3.2 km/h 1 km/h 73 % 0 mm
06:49 19.8 °C 15.4 °C 1012.1 hPa ESE 6.4 km/h 4.7 km/h 76 % 0 mm
06:54 19.8 °C 15.6 °C 1012.1 hPa ESE 1.9 km/h   77 % 0 mm
06:59 19.9 °C 16.2 °C 1011.7 hPa Calm     79 % 0 mm
07:04 20.1 °C 16.3 °C 1011.7 hPa Calm     79 % 0 mm
07:09 20.3 °C 16.6 °C 1012.1 hPa Calm     79 % 0 mm
07:14 20.6 °C 16.4 °C 1012.1 hPa ESE 5.6 km/h 2.4 km/h 77 % 0 mm
07:19 20.9 °C 16.3 °C 1011.7 hPa Calm     75 % 0 mm
07:24 21.3 °C 16.2 °C 1011.7 hPa Calm     73 % 0 mm
07:29 21.6 °C 15.9 °C 1011.7 hPa ESE 6.4 km/h 5.5 km/h 70 % 0 mm
07:34 21.8 °C 15.4 °C 1011.7 hPa ESE 3.7 km/h 2.6 km/h 67 % 0 mm
07:39 22.1 °C 15.4 °C 1011.7 hPa ESE 5.6 km/h 3.7 km/h 66 % 0 mm
07:44 22.5 °C 15.3 °C 1012.1 hPa ESE 7.4 km/h 7.2 km/h 64 % 0 mm
07:49 22.9 °C 15.2 °C 1012.1 hPa ESE 5.6 km/h 6.6 km/h 62 % 0 mm
07:54 23.4 °C 14.9 °C 1012.1 hPa ESE 5.6 km/h 2.1 km/h 59 % 0 mm
07:59 23.7 °C 15.2 °C 1012.1 hPa East 4.8 km/h 1.4 km/h 59 % 0 mm
08:04 24.1 °C 14.7 °C 1012.4 hPa Calm     56 % 0 mm
08:09 24.2 °C 14.3 °C 1012.4 hPa Calm     54 % 0 mm
08:14 24.3 °C 14.7 °C 1012.4 hPa East 1.9 km/h 0.2 km/h 55 % 0 mm
08:19 24.3 °C 14.4 °C 1012.8 hPa East 5.6 km/h 3.4 km/h 54 % 0 mm
08:23 24.3 °C 14.4 °C 1012.8 hPa East 5.6 km/h 3.9 km/h 54 % 0 mm
08:33 24.2 °C 14.1 °C 1012.8 hPa East 5.6 km/h 3.1 km/h 53 % 0 mm
08:49 24.4 °C 13.9 °C 1012.8 hPa East 6.4 km/h 5.6 km/h 52 % 0 mm
08:50 24.4 °C 13.9 °C 1012.8 hPa East 5.6 km/h 5.1 km/h 52 % 0 mm
08:59 24.6 °C 14.1 °C 1013.1 hPa East 6.4 km/h 4.7 km/h 52 % 0 mm
09:04 24.8 °C 13.9 °C 1013.1 hPa East 5.6 km/h 1.9 km/h 51 % 0 mm
09:09 25.1 °C 13.9 °C 1013.1 hPa East 5.6 km/h 2.6 km/h 50 % 0 mm
09:14 25.3 °C 14.4 °C 1013.1 hPa East 1.9 km/h 0.6 km/h 51 % 0 mm
09:19 25.4 °C 14.2 °C 1013.1 hPa East 5.6 km/h 4.7 km/h 50 % 0 mm
09:24 25.4 °C 14.6 °C 1013.4 hPa Calm     51 % 0 mm
09:29 25.5 °C 13.7 °C 1013.4 hPa East 5.6 km/h 4.5 km/h 48 % 0 mm
09:34 25.6 °C 13.4 °C 1012.8 hPa East 9.3 km/h 5 km/h 47 % 0 mm
09:39 25.6 °C 14.1 °C 1012.8 hPa East 5.6 km/h 0.6 km/h 49 % 0 mm
09:44 25.8 °C 13.6 °C 1013.1 hPa East 5.6 km/h 2.9 km/h 47 % 0 mm
09:49 26.1 °C 13.2 °C 1013.1 hPa East 1.9 km/h 0.5 km/h 45 % 0 mm
09:54 26.4 °C 13.2 °C 1013.1 hPa East 5.6 km/h 4.3 km/h 44 % 0 mm
09:59 26.4 °C 13.6 °C 1012.8 hPa East 8 km/h 3.5 km/h 45 % 0 mm
10:04 26.4 °C 13.2 °C 1012.8 hPa East 5.6 km/h 1 km/h 44 % 0 mm
10:09 26.5 °C 13.3 °C 1012.8 hPa East 9.3 km/h 5.6 km/h 44 % 0 mm
10:14 26.4 °C 12.8 °C 1012.8 hPa East 6.4 km/h 5.3 km/h 43 % 0 mm
10:19 26.3 °C 13.1 °C 1012.8 hPa East 5.6 km/h 1 km/h 44 % 0 mm
10:24 26.4 °C 12.8 °C 1012.8 hPa East 5.6 km/h 3.4 km/h 43 % 0 mm
10:29 26.6 °C 13 °C 1012.8 hPa East 5.6 km/h 2.9 km/h 43 % 0 mm
10:34 26.7 °C 12.7 °C 1012.8 hPa East 9.3 km/h 4.7 km/h 42 % 0 mm
10:39 26.6 °C 12.2 °C 1012.8 hPa East 9.3 km/h 5 km/h 41 % 0 mm
10:44 26.5 °C 12.6 °C 1012.8 hPa East 5.6 km/h 5.6 km/h 42 % 0 mm
10:49 26.4 °C 12.5 °C 1012.4 hPa East 7.4 km/h 2.1 km/h 42 % 0 mm
10:54 26.4 °C 13.2 °C 1012.8 hPa East 5.6 km/h 1.3 km/h 44 % 0 mm
10:59 26.2 °C 13 °C 1012.8 hPa East 5.6 km/h 3.2 km/h 44 % 0 mm
11:04 26.2 °C 13.3 °C 1012.4 hPa East 3.7 km/h 1.3 km/h 45 % 0 mm
11:09 26.3 °C 13.4 °C 1012.4 hPa East 1.9 km/h 0.3 km/h 45 % 0 mm
11:14 26.9 °C 13.3 °C 1012.4 hPa East 5.6 km/h 5.6 km/h 43 % 0 mm
11:19 26.9 °C 13.3 °C 1012.4 hPa East 3.7 km/h 2.4 km/h 43 % 0 mm
11:24 27.1 °C 13.1 °C 1012.4 hPa East 1.9 km/h 0.6 km/h 42 % 0 mm
11:29 27.5 °C 12.7 °C 1012.4 hPa East 5.6 km/h 4.5 km/h 40 % 0 mm
11:34 27.8 °C 13 °C 1012.4 hPa East 3.7 km/h 1.9 km/h 40 % 0 mm
11:39 28.1 °C 12.8 °C 1012.4 hPa East 3.7 km/h 2.1 km/h 39 % 0 mm
11:40 28.1 °C 12.8 °C 1012.4 hPa East 4.8 km/h 3.1 km/h 39 % 0 mm
12:39 30.1 °C 12.9 °C 1012.4 hPa NNW 7.4 km/h 6.9 km/h 35 % 0 mm
12:44 30.3 °C 12.7 °C 1012.4 hPa NNW 11.1 km/h 9.8 km/h 34 % 0 mm
12:49 30.1 °C 12.5 °C 1012.4 hPa NW 14.8 km/h 12.9 km/h 34 % 0 mm
12:54 29.8 °C 12.2 °C 1012.4 hPa NW 18.5 km/h 15.8 km/h 34 % 0 mm
12:59 29.9 °C 12.8 °C 1012.4 hPa West 16.1 km/h 12.1 km/h 35 % 0 mm
13:04 29.9 °C 12.3 °C 1012.4 hPa West 16.1 km/h 9.3 km/h 34 % 0 mm
13:09 29.7 °C 12.6 °C 1012.4 hPa West 9.3 km/h 3.5 km/h 35 % 0 mm
13:14 29.7 °C 12.6 °C 1012.4 hPa West 11.1 km/h 8.9 km/h 35 % 0 mm
13:19 29.8 °C 12.3 °C 1012.4 hPa NW 18.5 km/h 15.1 km/h 34 % 0 mm
13:24 29.6 °C 12.5 °C 1012.4 hPa NW 13 km/h 8.7 km/h 35 % 0 mm
13:29 29.5 °C 12.8 °C 1012.4 hPa North 13 km/h 9.2 km/h 36 % 0 mm
13:34 29.8 °C 12.7 °C 1012.4 hPa North 11.1 km/h 8.5 km/h 35 % 0 mm
13:39 29.7 °C 13.1 °C 1012.4 hPa NNW 12.9 km/h 7.9 km/h 36 % 0 mm
13:44 29.6 °C 12.9 °C 1012.4 hPa NW 18.5 km/h 8.2 km/h 36 % 0 mm
13:49 29.7 °C 13.4 °C 1012.4 hPa NW 11.1 km/h 8 km/h 37 % 0 mm
13:54 29.8 °C 13.1 °C 1012.4 hPa WNW 16.1 km/h 12.7 km/h 36 % 0 mm
13:59 29.8 °C 13.2 °C 1012.8 hPa WNW 13 km/h 8.2 km/h 36 % 0 mm
14:04 29.9 °C 13.6 °C 1012.4 hPa NW 18.5 km/h 15.3 km/h 37 % 0 mm
14:09 29.9 °C 14.1 °C 1012.4 hPa WNW 24.1 km/h 14.8 km/h 38 % 0 mm
14:14 29.7 °C 13.9 °C 1012.4 hPa West 16.7 km/h 12.1 km/h 38 % 0 mm
14:19 29.9 °C 14.1 °C 1012.4 hPa West 14.8 km/h 10.3 km/h 38 % 0 mm
14:24 30.1 °C 14.2 °C 1012.4 hPa WNW 16.7 km/h 9 km/h 38 % 0 mm
14:29 30.1 °C 13.8 °C 1012.4 hPa WNW 8 km/h 7.7 km/h 37 % 0 mm
14:34 29.9 °C 13.6 °C 1012.4 hPa WNW 20.4 km/h 12.7 km/h 37 % 0 mm
14:39 29.9 °C 14.1 °C 1012.4 hPa WNW 14.8 km/h 8.7 km/h 38 % 0 mm
14:44 30.1 °C 14.2 °C 1012.4 hPa West 16.7 km/h 17.1 km/h 38 % 0 mm
14:49 29.9 °C 13.7 °C 1012.1 hPa WNW 18.5 km/h 10.3 km/h 37 % 0 mm
14:54 29.9 °C 13.7 °C 1012.4 hPa North 11.1 km/h 7.9 km/h 37 % 0 mm
14:59 29.9 °C 13.7 °C 1012.4 hPa WNW 19.3 km/h 16.3 km/h 37 % 0 mm
15:04 29.8 °C 13.5 °C 1012.4 hPa WNW 12.9 km/h 10.9 km/h 37 % 0 mm
15:09 29.7 °C 13 °C 1012.4 hPa WNW 14.8 km/h 8 km/h 36 % 0 mm
15:14 29.8 °C 13.2 °C 1012.4 hPa WNW 24.1 km/h 12.4 km/h 36 % 0 mm
15:19 29.8 °C 13.5 °C 1012.4 hPa North 16.7 km/h 7.9 km/h 37 % 0 mm
15:24 29.8 °C 13.6 °C 1012.4 hPa NW 20.4 km/h 11.9 km/h 37 % 0 mm
15:29 30 °C 13.7 °C 1012.4 hPa West 16.7 km/h 9.3 km/h 37 % 0 mm
15:34 30 °C 13.3 °C 1012.4 hPa WSW 20.4 km/h 7.7 km/h 36 % 0 mm
15:39 29.4 °C 15.9 °C 1012.8 hPa SSW 20.4 km/h 15.9 km/h 44 % 0 mm
15:44 27.7 °C 16.3 °C 1012.8 hPa SSW 25.9 km/h 15.8 km/h 50 % 0 mm
15:49 27.1 °C 16.7 °C 1012.8 hPa SSW 13 km/h 11.7 km/h 53 % 0 mm
15:54 26.7 °C 16.3 °C 1012.8 hPa SW 27.8 km/h 22 km/h 53 % 0 mm
15:59 26.2 °C 16.4 °C 1012.8 hPa SSW 20.4 km/h 12.1 km/h 55 % 0 mm
16:04 25.9 °C 16.5 °C 1012.8 hPa SSW 29.6 km/h 20.4 km/h 56 % 0 mm
16:09 25.4 °C 16.5 °C 1013.1 hPa SSE 20.9 km/h 15.8 km/h 58 % 0 mm
16:14 25.2 °C 16.4 °C 1013.1 hPa South 22.2 km/h 12.9 km/h 58 % 0 mm
16:19 25.1 °C 16.6 °C 1013.1 hPa SSW 27.8 km/h 15.6 km/h 59 % 0 mm
16:24 25.2 °C 16.6 °C 1013.1 hPa SW 18.5 km/h 11.7 km/h 59 % 0 mm
16:29 24.9 °C 16.7 °C 1013.1 hPa SSW 29.6 km/h 18.2 km/h 60 % 0 mm
16:34 24.8 °C 16.6 °C 1013.4 hPa SW 18.5 km/h 13 km/h 60 % 0 mm
16:39 24.7 °C 16.4 °C 1013.1 hPa SSW 22.2 km/h 15.6 km/h 60 % 0 mm
16:44 24.4 °C 16.4 °C 1013.4 hPa SSW 25.9 km/h 10.5 km/h 61 % 0 mm
16:49 24.2 °C 16.2 °C 1013.4 hPa South 20.9 km/h 14.2 km/h 61 % 0 mm
16:54 23.9 °C 16.2 °C 1013.4 hPa SSW 18.5 km/h 10 km/h 62 % 0 mm
16:59 23.9 °C 16.2 °C 1013.4 hPa SSW 24.1 km/h 18.5 km/h 62 % 0 mm
17:04 23.5 °C 16.1 °C 1013.4 hPa SW 18.5 km/h 19.2 km/h 63 % 0 mm
17:09 22.9 °C 16 °C 1013.4 hPa SSW 25.9 km/h 18.5 km/h 65 % 0 mm
17:14 22.7 °C 16.1 °C 1013.4 hPa South 18.5 km/h 10.3 km/h 66 % 0 mm
17:19 22.6 °C 16.1 °C 1013.8 hPa South 18.5 km/h 11.6 km/h 67 % 0 mm
17:24 22.5 °C 15.8 °C 1013.8 hPa SW 22.2 km/h 19.3 km/h 66 % 0 mm
17:29 22.4 °C 16 °C 1013.8 hPa South 25.9 km/h 18.3 km/h 67 % 0 mm
17:34 22.4 °C 15.9 °C 1013.8 hPa South 20.4 km/h 19.3 km/h 67 % 0 mm
17:39 21.9 °C 15.6 °C 1013.8 hPa North 29.6 km/h 17.9 km/h 67 % 0 mm
17:44 21.6 °C 15.7 °C 1014.1 hPa South 27.8 km/h 18.3 km/h 69 % 0 mm
17:49 21.2 °C 15.6 °C 1014.1 hPa SSW 31.5 km/h 20.1 km/h 70 % 0 mm
17:54 21 °C 15.6 °C 1014.4 hPa SSW 24.1 km/h 16.9 km/h 71 % 0 mm
17:59 20.8 °C 15.6 °C 1014.1 hPa SSW 27.8 km/h 22 km/h 72 % 0 mm
18:04 20.7 °C 15.5 °C 1014.4 hPa South 24.1 km/h 14.2 km/h 72 % 0 mm
18:09 20.6 °C 15.3 °C 1014.4 hPa South 24.1 km/h 17.9 km/h 72 % 0 mm
18:14 20.3 °C 15.3 °C 1014.4 hPa South 22.2 km/h 13.4 km/h 73 % 0 mm
18:19 20.3 °C 15.3 °C 1014.8 hPa SSW 18.5 km/h 14.6 km/h 73 % 0 mm
18:24 20.1 °C 15.3 °C 1014.8 hPa SSW 29.6 km/h 21.7 km/h 74 % 0 mm
18:29 19.9 °C 15.4 °C 1014.8 hPa SSW 22.2 km/h 11.6 km/h 75 % 0 mm
18:34 19.7 °C 14.9 °C 1015.1 hPa South 27.8 km/h 18.5 km/h 74 % 0 mm
18:39 19.5 °C 14.9 °C 1015.1 hPa South 24.1 km/h 11.6 km/h 75 % 0 mm
18:44 19.4 °C 14.9 °C 1015.1 hPa SSW 22.5 km/h 14.5 km/h 75 % 0 mm
18:49 19.3 °C 14.9 °C 1015.1 hPa SSW 18.5 km/h 19.8 km/h 76 % 0 mm
18:54 19.1 °C 14.8 °C 1015.1 hPa South 31.5 km/h 18.3 km/h 76 % 0 mm
18:59 19 °C 14.9 °C 1015.1 hPa South 18.5 km/h 8.7 km/h 77 % 0 mm
19:04 18.8 °C 14.7 °C 1015.1 hPa South 24.1 km/h 17.5 km/h 77 % 0 mm
19:09 18.7 °C 14.8 °C 1015.1 hPa South 25.9 km/h 13.2 km/h 78 % 0 mm
19:14 18.6 °C 14.7 °C 1015.1 hPa South 14.8 km/h 13.8 km/h 78 % 0 mm
19:19 18.6 °C 14.7 °C 1015.5 hPa South 22.5 km/h 13.7 km/h 78 % 0 mm
19:24 18.6 °C 14.7 °C 1015.5 hPa South 25.9 km/h 15.9 km/h 78 % 0 mm
19:29 18.5 °C 14.8 °C 1015.5 hPa SSE 25.9 km/h 10.9 km/h 79 % 0 mm
19:34 18.4 °C 14.7 °C 1015.5 hPa South 27.8 km/h 11.1 km/h 79 % 0 mm
19:39 18.4 °C 14.9 °C 1015.8 hPa South 18.5 km/h 13.7 km/h 80 % 0 mm
19:44 18.3 °C 14.8 °C 1015.8 hPa South 14.8 km/h 9.2 km/h 80 % 0 mm
19:49 18.2 °C 14.7 °C 1015.8 hPa South 20.4 km/h 13.8 km/h 80 % 0 mm
19:54 17.9 °C 14.4 °C 1015.8 hPa South 29.6 km/h 10.6 km/h 80 % 0 mm
19:59 17.9 °C 14.6 °C 1015.8 hPa SSW 18.5 km/h 10.6 km/h 81 % 0 mm
20:04 17.7 °C 14.4 °C 1015.8 hPa SSW 29.6 km/h 6.9 km/h 81 % 0 mm
20:09 17.6 °C 14.5 °C 1016.1 hPa South 22.5 km/h 12.1 km/h 82 % 0 mm
20:14 17.4 °C 14.3 °C 1016.1 hPa South 18.5 km/h 14.6 km/h 82 % 0 mm
20:19 17.2 °C 14.3 °C 1016.1 hPa South 14.8 km/h 9.8 km/h 83 % 0 mm
20:24 16.9 °C 14.1 °C 1016.1 hPa North 25.9 km/h 19.5 km/h 83 % 0 mm
20:29 16.6 °C 13.9 °C 1016.5 hPa SSW 27.8 km/h 17.2 km/h 84 % 0 mm
20:34 16.3 °C 13.8 °C 1016.5 hPa South 27.8 km/h 19 km/h 85 % 0 mm
20:39 16.1 °C 13.8 °C 1016.5 hPa South 16.7 km/h 10.1 km/h 86 % 0 mm
20:44 15.9 °C 13.8 °C 1016.5 hPa South 31.5 km/h 17.2 km/h 87 % 0 mm
20:49 15.8 °C 13.7 °C 1016.5 hPa SSW 19.3 km/h 14.6 km/h 87 % 0 mm
20:54 15.7 °C 13.6 °C 1016.5 hPa South 29.6 km/h 16.9 km/h 87 % 0 mm
20:59 15.7 °C 13.7 °C 1016.5 hPa South 30.6 km/h 16.6 km/h 88 % 0 mm
21:04 15.6 °C 13.6 °C 1016.5 hPa South 25.9 km/h 17.2 km/h 88 % 0 mm
21:09 15.6 °C 13.6 °C 1016.5 hPa SSE 18.5 km/h 4.8 km/h 88 % 0 mm
21:14 15.6 °C 13.6 °C 1016.5 hPa SSE 18.5 km/h 16.7 km/h 88 % 0 mm
21:19 15.4 °C 13.4 °C 1016.5 hPa SSW 20.4 km/h 14 km/h 88 % 0 mm
21:24 15.3 °C 13.5 °C 1016.8 hPa North 24.1 km/h 14.8 km/h 89 % 0 mm
21:29 15.2 °C 13.4 °C 1016.8 hPa South 16.1 km/h 13.7 km/h 89 % 0 mm
21:34 15.1 °C 13.3 °C 1016.8 hPa South 18.5 km/h 14.2 km/h 89 % 0 mm
21:39 15 °C 13.4 °C 1016.8 hPa South 31.5 km/h 19.3 km/h 90 % 0 mm
21:44 14.9 °C 13.3 °C 1017.2 hPa SSE 27.8 km/h 12.7 km/h 90 % 0 mm
21:49 14.8 °C 13.2 °C 1016.8 hPa South 22.2 km/h 11.4 km/h 90 % 0 mm
21:54 14.8 °C 13.3 °C 1017.2 hPa South 25.9 km/h 15.3 km/h 91 % 0 mm
21:59 14.7 °C 13.2 °C 1017.2 hPa South 24.1 km/h 16.6 km/h 91 % 0 mm
22:04 14.6 °C 13.2 °C 1017.2 hPa South 29.6 km/h 20.1 km/h 91 % 0 mm
22:09 14.5 °C 12.9 °C 1017.2 hPa South 20.4 km/h 9 km/h 90 % 0 mm
22:14 14.4 °C 13 °C 1017.2 hPa South 24.1 km/h 17.2 km/h 91 % 0 mm
22:19 14.4 °C 12.9 °C 1017.2 hPa South 22.2 km/h 14.8 km/h 91 % 0 mm
22:24 14.3 °C 12.9 °C 1017.5 hPa South 20.9 km/h 12.2 km/h 91 % 0 mm
22:29 14.3 °C 12.9 °C 1017.5 hPa SSE 13 km/h 9.8 km/h 91 % 0 mm
22:34 14.3 °C 12.9 °C 1017.5 hPa South 27.4 km/h 13.7 km/h 91 % 0 mm
22:39 14.3 °C 12.8 °C 1017.5 hPa South 20.4 km/h 13 km/h 91 % 0 mm
22:44 14.2 °C 12.8 °C 1017.5 hPa SSE 27.8 km/h 12.6 km/h 91 % 0 mm
22:49 14.2 °C 12.7 °C 1017.5 hPa SSE 25.9 km/h 13.4 km/h 91 % 0 mm
22:54 14.1 °C 12.7 °C 1017.5 hPa South 20.4 km/h 16.1 km/h 91 % 0 mm
22:59 14.1 °C 12.6 °C 1017.8 hPa South 20.4 km/h 6.9 km/h 91 % 0 mm
23:04 14 °C 12.6 °C 1017.5 hPa SSE 27.8 km/h 16.7 km/h 91 % 0 mm
23:09 13.9 °C 12.5 °C 1017.5 hPa South 24.1 km/h 11.6 km/h 91 % 0 mm
23:14 13.9 °C 12.4 °C 1017.5 hPa SSW 18.5 km/h 13.7 km/h 91 % 0 mm
23:19 13.9 °C 12.4 °C 1017.5 hPa South 20.4 km/h 12.6 km/h 91 % 0 mm
23:24 13.9 °C 12.4 °C 1017.5 hPa South 25.9 km/h 15 km/h 91 % 0 mm
23:29 13.9 °C 12.4 °C 1017.5 hPa South 18.5 km/h 13.4 km/h 91 % 0 mm
23:34 13.9 °C 12.4 °C 1017.5 hPa North 25.7 km/h 16.9 km/h 91 % 0 mm
23:39 13.9 °C 12.4 °C 1017.2 hPa South 22.2 km/h 15.1 km/h 91 % 0 mm
23:44 13.9 °C 12.6 °C 1017.2 hPa South 20.4 km/h 17.1 km/h 92 % 0 mm
23:49 13.9 °C 12.7 °C 1017.2 hPa North 18.5 km/h 15.6 km/h 92 % 0 mm
23:54 13.9 °C 12.7 °C 1017.2 hPa SSE 20.4 km/h 13.5 km/h 92 % 0 mm
23:59 13.9 °C 12.7 °C 1017.2 hPa South 24.1 km/h 12.6 km/h 92 % 0 mm
Ararat Weather
Compliments of Weather Underground - 2.25 mb
Click here to send mail.


ABOUT

Live weather data from Ararat, Victoria, Australia, 3377
Data uploaded from Cumulus every 5 minutes to Weather Underground.
This site then downloads the raw data for formatting and display.
Metric and imperial data can be displayed. Graphs and historical data available.
Includes Sun and Moon times and rain image live from BOM.

Check out Ararat Weather on Facebook, Twitter and Google +

Help support ongoing costs by checking out the ads





Follow @AraratWeather